sensor_id;sensor_type;location;lat;lon;timestamp;P1;durP1;ratioP1;P2;durP2;ratioP2
27566;SDS011;15006;48.584;9.186;2022-12-07T00:01:40;7.88;;;7.35;;
27566;SDS011;15006;48.584;9.186;2022-12-07T00:04:13;7.55;;;6.85;;
27566;SDS011;15006;48.584;9.186;2022-12-07T00:06:44;8.73;;;7.18;;
27566;SDS011;15006;48.584;9.186;2022-12-07T00:09:17;7.55;;;6.95;;
27566;SDS011;15006;48.584;9.186;2022-12-07T00:11:48;7.50;;;6.90;;
27566;SDS011;15006;48.584;9.186;2022-12-07T00:16:45;7.07;;;6.38;;
27566;SDS011;15006;48.584;9.186;2022-12-07T00:19:17;10.40;;;6.80;;
27566;SDS011;15006;48.584;9.186;2022-12-07T00:21:46;6.28;;;5.88;;
27566;SDS011;15006;48.584;9.186;2022-12-07T00:24:14;6.80;;;6.40;;
27566;SDS011;15006;48.584;9.186;2022-12-07T00:26:42;6.60;;;6.00;;
27566;SDS011;15006;48.584;9.186;2022-12-07T00:29:20;7.00;;;6.50;;
27566;SDS011;15006;48.584;9.186;2022-12-07T00:31:49;6.43;;;5.82;;
27566;SDS011;15006;48.584;9.186;2022-12-07T00:34:18;6.57;;;5.95;;
27566;SDS011;15006;48.584;9.186;2022-12-07T00:36:47;6.65;;;6.05;;
27566;SDS011;15006;48.584;9.186;2022-12-07T00:39:15;7.60;;;5.95;;
27566;SDS011;15006;48.584;9.186;2022-12-07T00:41:44;6.40;;;6.00;;
27566;SDS011;15006;48.584;9.186;2022-12-07T00:44:11;8.63;;;6.18;;
27566;SDS011;15006;48.584;9.186;2022-12-07T00:46:39;6.60;;;6.10;;
27566;SDS011;15006;48.584;9.186;2022-12-07T00:49:06;6.15;;;5.75;;
27566;SDS011;15006;48.584;9.186;2022-12-07T00:51:32;6.65;;;6.20;;
27566;SDS011;15006;48.584;9.186;2022-12-07T00:53:58;6.30;;;5.90;;
27566;SDS011;15006;48.584;9.186;2022-12-07T00:56:25;6.75;;;6.18;;
27566;SDS011;15006;48.584;9.186;2022-12-07T00:58:54;6.82;;;6.32;;
27566;SDS011;15006;48.584;9.186;2022-12-07T01:01:23;7.28;;;6.60;;
27566;SDS011;15006;48.584;9.186;2022-12-07T01:03:50;6.88;;;6.30;;
27566;SDS011;15006;48.584;9.186;2022-12-07T01:06:17;6.72;;;6.15;;
27566;SDS011;15006;48.584;9.186;2022-12-07T01:08:45;6.90;;;6.30;;
27566;SDS011;15006;48.584;9.186;2022-12-07T01:11:12;6.57;;;6.07;;
27566;SDS011;15006;48.584;9.186;2022-12-07T01:13:40;6.63;;;6.13;;
27566;SDS011;15006;48.584;9.186;2022-12-07T01:16:07;6.53;;;6.03;;
27566;SDS011;15006;48.584;9.186;2022-12-07T01:18:35;6.15;;;5.65;;
27566;SDS011;15006;48.584;9.186;2022-12-07T01:21:13;9.43;;;6.82;;
27566;SDS011;15006;48.584;9.186;2022-12-07T01:23:40;6.45;;;6.00;;
27566;SDS011;15006;48.584;9.186;2022-12-07T01:26:07;6.60;;;6.20;;
27566;SDS011;15006;48.584;9.186;2022-12-07T01:28:36;6.47;;;6.03;;
27566;SDS011;15006;48.584;9.186;2022-12-07T01:33:36;7.00;;;6.40;;
27566;SDS011;15006;48.584;9.186;2022-12-07T01:36:05;7.30;;;6.68;;
27566;SDS011;15006;48.584;9.186;2022-12-07T01:41:13;6.80;;;6.30;;
27566;SDS011;15006;48.584;9.186;2022-12-07T01:46:45;8.32;;;6.80;;
27566;SDS011;15006;48.584;9.186;2022-12-07T01:49:16;7.55;;;6.82;;
27566;SDS011;15006;48.584;9.186;2022-12-07T01:51:57;7.05;;;6.35;;
27566;SDS011;15006;48.584;9.186;2022-12-07T01:54:31;8.85;;;7.25;;
27566;SDS011;15006;48.584;9.186;2022-12-07T01:56:58;7.50;;;6.90;;
27566;SDS011;15006;48.584;9.186;2022-12-07T01:59:25;6.90;;;6.50;;
27566;SDS011;15006;48.584;9.186;2022-12-07T02:01:52;7.90;;;7.20;;
27566;SDS011;15006;48.584;9.186;2022-12-07T02:04:21;8.20;;;6.68;;
27566;SDS011;15006;48.584;9.186;2022-12-07T02:06:49;8.52;;;7.18;;
27566;SDS011;15006;48.584;9.186;2022-12-07T02:09:16;8.07;;;7.38;;
27566;SDS011;15006;48.584;9.186;2022-12-07T02:11:43;8.63;;;7.72;;
27566;SDS011;15006;48.584;9.186;2022-12-07T02:14:09;9.93;;;8.32;;
27566;SDS011;15006;48.584;9.186;2022-12-07T02:34:48;15.00;;;11.30;;
27566;SDS011;15006;48.584;9.186;2022-12-07T02:40:43;12.30;;;11.07;;
27566;SDS011;15006;48.584;9.186;2022-12-07T02:46:08;15.00;;;11.65;;
27566;SDS011;15006;48.584;9.186;2022-12-07T02:48:39;14.10;;;11.80;;
27566;SDS011;15006;48.584;9.186;2022-12-07T02:51:08;14.93;;;11.65;;
27566;SDS011;15006;48.584;9.186;2022-12-07T02:53:35;14.88;;;12.48;;
27566;SDS011;15006;48.584;9.186;2022-12-07T02:59:39;13.63;;;12.23;;
27566;SDS011;15006;48.584;9.186;2022-12-07T03:13:10;16.95;;;13.35;;
27566;SDS011;15006;48.584;9.186;2022-12-07T03:18:39;15.13;;;12.70;;
27566;SDS011;15006;48.584;9.186;2022-12-07T03:21:23;17.48;;;12.63;;
27566;SDS011;15006;48.584;9.186;2022-12-07T03:23:58;16.85;;;13.00;;
27566;SDS011;15006;48.584;9.186;2022-12-07T03:26:37;18.13;;;13.55;;
27566;SDS011;15006;48.584;9.186;2022-12-07T03:29:28;19.00;;;13.88;;
27566;SDS011;15006;48.584;9.186;2022-12-07T03:32:05;16.30;;;13.60;;
27566;SDS011;15006;48.584;9.186;2022-12-07T03:37:54;18.05;;;13.63;;
27566;SDS011;15006;48.584;9.186;2022-12-07T03:43:20;14.02;;;12.52;;
27566;SDS011;15006;48.584;9.186;2022-12-07T03:46:08;14.88;;;12.65;;
27566;SDS011;15006;48.584;9.186;2022-12-07T03:52:33;14.02;;;12.25;;
27566;SDS011;15006;48.584;9.186;2022-12-07T03:55:14;14.48;;;12.18;;
27566;SDS011;15006;48.584;9.186;2022-12-07T03:57:44;14.75;;;11.85;;
27566;SDS011;15006;48.584;9.186;2022-12-07T04:00:15;16.55;;;11.93;;
27566;SDS011;15006;48.584;9.186;2022-12-07T04:02:42;14.10;;;11.80;;
27566;SDS011;15006;48.584;9.186;2022-12-07T04:05:09;16.33;;;12.40;;
27566;SDS011;15006;48.584;9.186;2022-12-07T04:07:36;17.17;;;13.25;;
27566;SDS011;15006;48.584;9.186;2022-12-07T04:10:02;13.93;;;11.93;;
27566;SDS011;15006;48.584;9.186;2022-12-07T04:12:30;15.63;;;12.75;;
27566;SDS011;15006;48.584;9.186;2022-12-07T04:14:56;14.77;;;12.68;;
27566;SDS011;15006;48.584;9.186;2022-12-07T04:17:22;15.52;;;13.02;;
27566;SDS011;15006;48.584;9.186;2022-12-07T04:19:48;16.08;;;12.82;;
27566;SDS011;15006;48.584;9.186;2022-12-07T04:22:14;14.30;;;11.90;;
27566;SDS011;15006;48.584;9.186;2022-12-07T04:24:40;14.85;;;12.75;;
27566;SDS011;15006;48.584;9.186;2022-12-07T04:27:06;18.58;;;12.60;;
27566;SDS011;15006;48.584;9.186;2022-12-07T04:29:31;15.90;;;13.00;;
27566;SDS011;15006;48.584;9.186;2022-12-07T04:31:57;15.05;;;12.85;;
27566;SDS011;15006;48.584;9.186;2022-12-07T04:34:23;15.38;;;11.90;;
27566;SDS011;15006;48.584;9.186;2022-12-07T04:36:50;15.35;;;12.63;;
27566;SDS011;15006;48.584;9.186;2022-12-07T04:39:34;16.83;;;12.45;;
27566;SDS011;15006;48.584;9.186;2022-12-07T04:42:00;15.80;;;11.63;;
27566;SDS011;15006;48.584;9.186;2022-12-07T04:44:27;12.63;;;11.32;;
27566;SDS011;15006;48.584;9.186;2022-12-07T04:46:55;16.63;;;12.70;;
27566;SDS011;15006;48.584;9.186;2022-12-07T04:49:22;18.35;;;13.35;;
27566;SDS011;15006;48.584;9.186;2022-12-07T04:51:49;17.73;;;13.35;;
27566;SDS011;15006;48.584;9.186;2022-12-07T04:54:16;18.60;;;13.32;;
27566;SDS011;15006;48.584;9.186;2022-12-07T04:56:43;14.90;;;12.77;;
27566;SDS011;15006;48.584;9.186;2022-12-07T04:59:09;15.85;;;13.45;;
27566;SDS011;15006;48.584;9.186;2022-12-07T05:01:37;14.80;;;12.23;;
27566;SDS011;15006;48.584;9.186;2022-12-07T05:04:03;14.35;;;12.60;;
27566;SDS011;15006;48.584;9.186;2022-12-07T05:06:30;17.10;;;13.25;;
27566;SDS011;15006;48.584;9.186;2022-12-07T05:08:56;14.60;;;12.20;;
27566;SDS011;15006;48.584;9.186;2022-12-07T05:11:22;15.20;;;11.90;;
27566;SDS011;15006;48.584;9.186;2022-12-07T05:14:05;17.13;;;11.85;;
27566;SDS011;15006;48.584;9.186;2022-12-07T05:16:41;12.52;;;10.25;;
27566;SDS011;15006;48.584;9.186;2022-12-07T05:19:09;9.82;;;8.88;;
27566;SDS011;15006;48.584;9.186;2022-12-07T05:21:36;11.02;;;9.20;;
27566;SDS011;15006;48.584;9.186;2022-12-07T05:24:02;10.40;;;9.23;;
27566;SDS011;15006;48.584;9.186;2022-12-07T05:26:30;11.10;;;9.50;;
27566;SDS011;15006;48.584;9.186;2022-12-07T05:28:56;11.00;;;9.85;;
27566;SDS011;15006;48.584;9.186;2022-12-07T05:31:24;14.02;;;10.80;;
27566;SDS011;15006;48.584;9.186;2022-12-07T05:33:51;13.35;;;10.65;;
27566;SDS011;15006;48.584;9.186;2022-12-07T05:36:18;16.27;;;10.52;;
27566;SDS011;15006;48.584;9.186;2022-12-07T05:38:44;16.55;;;11.85;;
27566;SDS011;15006;48.584;9.186;2022-12-07T05:41:12;15.68;;;12.10;;
27566;SDS011;15006;48.584;9.186;2022-12-07T05:44:00;17.63;;;12.98;;
27566;SDS011;15006;48.584;9.186;2022-12-07T05:46:26;21.25;;;15.00;;
27566;SDS011;15006;48.584;9.186;2022-12-07T05:48:52;22.10;;;15.70;;
27566;SDS011;15006;48.584;9.186;2022-12-07T05:51:18;23.63;;;16.80;;
27566;SDS011;15006;48.584;9.186;2022-12-07T05:53:45;22.58;;;16.08;;
27566;SDS011;15006;48.584;9.186;2022-12-07T05:56:11;19.88;;;14.38;;
27566;SDS011;15006;48.584;9.186;2022-12-07T05:58:37;20.75;;;14.38;;
27566;SDS011;15006;48.584;9.186;2022-12-07T06:01:21;21.45;;;15.05;;
27566;SDS011;15006;48.584;9.186;2022-12-07T06:03:47;23.63;;;16.05;;
27566;SDS011;15006;48.584;9.186;2022-12-07T06:06:13;25.77;;;16.58;;
27566;SDS011;15006;48.584;9.186;2022-12-07T06:08:39;23.25;;;15.20;;
27566;SDS011;15006;48.584;9.186;2022-12-07T06:11:05;25.60;;;16.35;;
27566;SDS011;15006;48.584;9.186;2022-12-07T06:13:49;26.63;;;15.85;;
27566;SDS011;15006;48.584;9.186;2022-12-07T06:16:16;24.33;;;15.02;;
27566;SDS011;15006;48.584;9.186;2022-12-07T06:18:42;20.13;;;13.85;;
27566;SDS011;15006;48.584;9.186;2022-12-07T06:21:08;16.45;;;12.82;;
27566;SDS011;15006;48.584;9.186;2022-12-07T06:23:34;19.38;;;13.60;;
27566;SDS011;15006;48.584;9.186;2022-12-07T06:25:59;19.95;;;14.18;;
27566;SDS011;15006;48.584;9.186;2022-12-07T06:28:26;16.45;;;12.40;;
27566;SDS011;15006;48.584;9.186;2022-12-07T06:30:58;17.10;;;13.55;;
27566;SDS011;15006;48.584;9.186;2022-12-07T06:33:26;15.68;;;12.02;;
27566;SDS011;15006;48.584;9.186;2022-12-07T06:35:52;13.07;;;10.45;;
27566;SDS011;15006;48.584;9.186;2022-12-07T06:38:18;14.55;;;10.82;;
27566;SDS011;15006;48.584;9.186;2022-12-07T06:40:44;14.02;;;11.45;;
27566;SDS011;15006;48.584;9.186;2022-12-07T06:43:10;13.95;;;10.68;;
27566;SDS011;15006;48.584;9.186;2022-12-07T06:45:36;14.32;;;11.30;;
27566;SDS011;15006;48.584;9.186;2022-12-07T06:48:02;17.55;;;12.27;;
27566;SDS011;15006;48.584;9.186;2022-12-07T06:50:28;17.85;;;12.50;;
27566;SDS011;15006;48.584;9.186;2022-12-07T06:52:54;18.45;;;12.48;;
27566;SDS011;15006;48.584;9.186;2022-12-07T06:55:20;16.58;;;11.65;;
27566;SDS011;15006;48.584;9.186;2022-12-07T06:57:46;17.27;;;12.40;;
27566;SDS011;15006;48.584;9.186;2022-12-07T07:00:12;16.92;;;11.23;;
27566;SDS011;15006;48.584;9.186;2022-12-07T07:02:39;15.10;;;12.18;;
27566;SDS011;15006;48.584;9.186;2022-12-07T07:05:05;19.05;;;13.57;;
27566;SDS011;15006;48.584;9.186;2022-12-07T07:07:31;20.52;;;14.85;;
27566;SDS011;15006;48.584;9.186;2022-12-07T07:09:57;31.73;;;21.23;;
27566;SDS011;15006;48.584;9.186;2022-12-07T07:12:23;31.08;;;21.67;;
27566;SDS011;15006;48.584;9.186;2022-12-07T07:14:49;26.27;;;18.20;;
27566;SDS011;15006;48.584;9.186;2022-12-07T07:17:15;58.00;;;32.72;;
27566;SDS011;15006;48.584;9.186;2022-12-07T07:19:41;32.50;;;20.73;;
27566;SDS011;15006;48.584;9.186;2022-12-07T07:22:07;42.50;;;26.25;;
27566;SDS011;15006;48.584;9.186;2022-12-07T07:24:33;77.03;;;42.72;;
27566;SDS011;15006;48.584;9.186;2022-12-07T07:26:59;32.65;;;21.67;;
27566;SDS011;15006;48.584;9.186;2022-12-07T07:29:25;23.00;;;17.27;;
27566;SDS011;15006;48.584;9.186;2022-12-07T07:31:51;19.52;;;15.07;;
27566;SDS011;15006;48.584;9.186;2022-12-07T07:34:17;15.48;;;10.85;;
27566;SDS011;15006;48.584;9.186;2022-12-07T07:36:43;13.20;;;10.65;;
27566;SDS011;15006;48.584;9.186;2022-12-07T07:39:09;12.32;;;10.02;;
27566;SDS011;15006;48.584;9.186;2022-12-07T07:41:38;14.68;;;10.85;;
27566;SDS011;15006;48.584;9.186;2022-12-07T07:44:04;12.20;;;10.48;;
27566;SDS011;15006;48.584;9.186;2022-12-07T07:46:30;13.38;;;10.70;;
27566;SDS011;15006;48.584;9.186;2022-12-07T07:48:58;13.38;;;10.93;;
27566;SDS011;15006;48.584;9.186;2022-12-07T07:51:24;12.48;;;9.90;;
27566;SDS011;15006;48.584;9.186;2022-12-07T07:53:50;12.68;;;10.88;;
27566;SDS011;15006;48.584;9.186;2022-12-07T07:56:16;13.50;;;10.82;;
27566;SDS011;15006;48.584;9.186;2022-12-07T07:58:42;14.18;;;10.77;;
27566;SDS011;15006;48.584;9.186;2022-12-07T08:01:08;13.85;;;10.65;;
27566;SDS011;15006;48.584;9.186;2022-12-07T08:03:34;13.95;;;10.35;;
27566;SDS011;15006;48.584;9.186;2022-12-07T08:06:02;13.40;;;10.82;;
27566;SDS011;15006;48.584;9.186;2022-12-07T08:08:29;13.52;;;10.57;;
27566;SDS011;15006;48.584;9.186;2022-12-07T08:10:55;13.50;;;10.13;;
27566;SDS011;15006;48.584;9.186;2022-12-07T08:13:21;13.15;;;10.80;;
27566;SDS011;15006;48.584;9.186;2022-12-07T08:15:47;11.88;;;10.50;;
27566;SDS011;15006;48.584;9.186;2022-12-07T08:18:14;12.98;;;9.98;;
27566;SDS011;15006;48.584;9.186;2022-12-07T08:20:40;13.40;;;10.98;;
27566;SDS011;15006;48.584;9.186;2022-12-07T08:23:08;13.07;;;10.63;;
27566;SDS011;15006;48.584;9.186;2022-12-07T08:25:35;12.18;;;10.68;;
27566;SDS011;15006;48.584;9.186;2022-12-07T08:28:01;13.20;;;11.07;;
27566;SDS011;15006;48.584;9.186;2022-12-07T08:30:28;12.20;;;10.70;;
27566;SDS011;15006;48.584;9.186;2022-12-07T08:32:55;17.58;;;11.07;;
27566;SDS011;15006;48.584;9.186;2022-12-07T08:35:21;12.10;;;10.57;;
27566;SDS011;15006;48.584;9.186;2022-12-07T08:37:47;15.63;;;11.38;;
27566;SDS011;15006;48.584;9.186;2022-12-07T08:40:13;13.27;;;11.27;;
27566;SDS011;15006;48.584;9.186;2022-12-07T08:42:41;14.43;;;11.75;;
27566;SDS011;15006;48.584;9.186;2022-12-07T08:45:12;16.35;;;12.63;;
27566;SDS011;15006;48.584;9.186;2022-12-07T08:47:41;19.13;;;12.85;;
27566;SDS011;15006;48.584;9.186;2022-12-07T08:50:12;16.02;;;12.38;;
27566;SDS011;15006;48.584;9.186;2022-12-07T08:52:40;15.15;;;12.35;;
27566;SDS011;15006;48.584;9.186;2022-12-07T08:55:07;15.73;;;12.43;;
27566;SDS011;15006;48.584;9.186;2022-12-07T08:57:36;15.70;;;12.52;;
27566;SDS011;15006;48.584;9.186;2022-12-07T09:00:04;16.00;;;12.40;;
27566;SDS011;15006;48.584;9.186;2022-12-07T09:02:31;15.57;;;12.13;;
27566;SDS011;15006;48.584;9.186;2022-12-07T09:04:57;13.18;;;11.70;;
27566;SDS011;15006;48.584;9.186;2022-12-07T09:07:23;17.80;;;12.82;;
27566;SDS011;15006;48.584;9.186;2022-12-07T09:09:51;15.18;;;12.32;;
27566;SDS011;15006;48.584;9.186;2022-12-07T09:12:17;14.30;;;11.95;;
27566;SDS011;15006;48.584;9.186;2022-12-07T09:14:43;13.77;;;12.07;;
27566;SDS011;15006;48.584;9.186;2022-12-07T09:17:10;13.40;;;11.85;;
27566;SDS011;15006;48.584;9.186;2022-12-07T09:19:37;14.60;;;11.30;;
27566;SDS011;15006;48.584;9.186;2022-12-07T09:22:04;13.02;;;11.38;;
27566;SDS011;15006;48.584;9.186;2022-12-07T09:24:31;13.52;;;10.88;;
27566;SDS011;15006;48.584;9.186;2022-12-07T09:26:57;11.80;;;10.60;;
27566;SDS011;15006;48.584;9.186;2022-12-07T09:29:24;13.15;;;10.95;;
27566;SDS011;15006;48.584;9.186;2022-12-07T09:31:51;12.40;;;10.43;;
27566;SDS011;15006;48.584;9.186;2022-12-07T09:34:17;12.60;;;10.93;;
27566;SDS011;15006;48.584;9.186;2022-12-07T09:36:44;11.38;;;10.15;;
27566;SDS011;15006;48.584;9.186;2022-12-07T09:39:10;13.13;;;10.75;;
27566;SDS011;15006;48.584;9.186;2022-12-07T09:41:37;11.05;;;9.88;;
27566;SDS011;15006;48.584;9.186;2022-12-07T09:44:09;8.45;;;7.60;;
27566;SDS011;15006;48.584;9.186;2022-12-07T09:46:39;11.18;;;10.07;;
27566;SDS011;15006;48.584;9.186;2022-12-07T09:49:11;10.43;;;9.27;;
27566;SDS011;15006;48.584;9.186;2022-12-07T09:51:42;11.20;;;10.10;;
27566;SDS011;15006;48.584;9.186;2022-12-07T09:54:08;10.07;;;8.93;;
27566;SDS011;15006;48.584;9.186;2022-12-07T09:56:39;9.75;;;8.88;;
27566;SDS011;15006;48.584;9.186;2022-12-07T09:59:06;10.18;;;9.18;;
27566;SDS011;15006;48.584;9.186;2022-12-07T10:01:39;12.65;;;9.25;;
27566;SDS011;15006;48.584;9.186;2022-12-07T10:04:12;10.88;;;9.10;;
27566;SDS011;15006;48.584;9.186;2022-12-07T10:06:48;10.55;;;8.65;;
27566;SDS011;15006;48.584;9.186;2022-12-07T10:09:17;10.57;;;9.48;;
27566;SDS011;15006;48.584;9.186;2022-12-07T10:12:00;9.85;;;8.77;;
27566;SDS011;15006;48.584;9.186;2022-12-07T10:14:38;9.65;;;8.57;;
27566;SDS011;15006;48.584;9.186;2022-12-07T10:18:01;8.65;;;7.80;;
27566;SDS011;15006;48.584;9.186;2022-12-07T10:20:21;9.10;;;7.93;;
27566;SDS011;15006;48.584;9.186;2022-12-07T10:22:57;10.55;;;7.80;;
27566;SDS011;15006;48.584;9.186;2022-12-07T10:25:26;8.77;;;7.78;;
27566;SDS011;15006;48.584;9.186;2022-12-07T10:27:58;9.07;;;8.18;;
27566;SDS011;15006;48.584;9.186;2022-12-07T10:35:58;8.13;;;7.22;;
27566;SDS011;15006;48.584;9.186;2022-12-07T10:38:26;8.10;;;7.35;;
27566;SDS011;15006;48.584;9.186;2022-12-07T10:41:04;9.13;;;8.13;;
27566;SDS011;15006;48.584;9.186;2022-12-07T10:43:31;9.23;;;8.20;;
27566;SDS011;15006;48.584;9.186;2022-12-07T10:48:49;8.50;;;7.70;;
27566;SDS011;15006;48.584;9.186;2022-12-07T10:51:49;10.90;;;8.07;;
27566;SDS011;15006;48.584;9.186;2022-12-07T11:00:25;9.48;;;8.68;;
27566;SDS011;15006;48.584;9.186;2022-12-07T11:14:35;7.80;;;7.20;;
27566;SDS011;15006;48.584;9.186;2022-12-07T11:17:20;8.30;;;7.43;;
27566;SDS011;15006;48.584;9.186;2022-12-07T11:31:54;8.70;;;7.80;;
27566;SDS011;15006;48.584;9.186;2022-12-07T11:37:30;9.02;;;8.13;;
27566;SDS011;15006;48.584;9.186;2022-12-07T11:40:00;8.93;;;8.13;;
27566;SDS011;15006;48.584;9.186;2022-12-07T11:42:33;10.18;;;8.90;;
27566;SDS011;15006;48.584;9.186;2022-12-07T11:45:17;11.73;;;8.80;;
27566;SDS011;15006;48.584;9.186;2022-12-07T11:50:48;10.32;;;9.23;;
27566;SDS011;15006;48.584;9.186;2022-12-07T11:53:30;11.80;;;9.85;;
27566;SDS011;15006;48.584;9.186;2022-12-07T11:56:10;10.88;;;9.48;;
27566;SDS011;15006;48.584;9.186;2022-12-07T11:58:48;10.68;;;9.20;;
27566;SDS011;15006;48.584;9.186;2022-12-07T12:06:37;8.95;;;8.10;;
27566;SDS011;15006;48.584;9.186;2022-12-07T12:09:12;9.10;;;7.88;;
27566;SDS011;15006;48.584;9.186;2022-12-07T12:20:55;8.40;;;7.60;;
27566;SDS011;15006;48.584;9.186;2022-12-07T12:26:23;8.15;;;7.53;;
27566;SDS011;15006;48.584;9.186;2022-12-07T12:33:56;7.82;;;7.15;;
27566;SDS011;15006;48.584;9.186;2022-12-07T12:36:27;8.13;;;7.40;;
27566;SDS011;15006;48.584;9.186;2022-12-07T12:44:38;10.50;;;9.25;;
27566;SDS011;15006;48.584;9.186;2022-12-07T12:46:56;8.73;;;7.93;;
27566;SDS011;15006;48.584;9.186;2022-12-07T12:49:32;7.72;;;7.03;;
27566;SDS011;15006;48.584;9.186;2022-12-07T12:54:35;8.70;;;7.80;;
27566;SDS011;15006;48.584;9.186;2022-12-07T12:57:07;8.55;;;7.65;;
27566;SDS011;15006;48.584;9.186;2022-12-07T12:59:55;25.10;;;14.23;;
27566;SDS011;15006;48.584;9.186;2022-12-07T13:02:34;10.15;;;8.95;;
27566;SDS011;15006;48.584;9.186;2022-12-07T13:05:22;8.48;;;7.72;;
27566;SDS011;15006;48.584;9.186;2022-12-07T13:07:53;9.10;;;8.05;;
27566;SDS011;15006;48.584;9.186;2022-12-07T13:15:41;10.00;;;8.45;;
27566;SDS011;15006;48.584;9.186;2022-12-07T13:18:23;8.18;;;7.45;;
27566;SDS011;15006;48.584;9.186;2022-12-07T13:28:52;8.02;;;7.43;;
27566;SDS011;15006;48.584;9.186;2022-12-07T13:31:49;12.90;;;10.63;;
27566;SDS011;15006;48.584;9.186;2022-12-07T13:39:59;8.90;;;8.00;;
27566;SDS011;15006;48.584;9.186;2022-12-07T13:42:33;7.95;;;7.15;;
27566;SDS011;15006;48.584;9.186;2022-12-07T13:45:26;8.35;;;7.50;;
27566;SDS011;15006;48.584;9.186;2022-12-07T13:48:21;9.23;;;7.20;;
27566;SDS011;15006;48.584;9.186;2022-12-07T13:51:01;7.18;;;6.57;;
27566;SDS011;15006;48.584;9.186;2022-12-07T13:53:29;7.50;;;6.90;;
27566;SDS011;15006;48.584;9.186;2022-12-07T13:55:56;8.50;;;7.65;;
27566;SDS011;15006;48.584;9.186;2022-12-07T13:58:24;7.70;;;7.00;;
27566;SDS011;15006;48.584;9.186;2022-12-07T14:00:52;7.80;;;7.00;;
27566;SDS011;15006;48.584;9.186;2022-12-07T14:05:44;7.80;;;7.00;;
27566;SDS011;15006;48.584;9.186;2022-12-07T14:10:37;8.02;;;7.25;;
27566;SDS011;15006;48.584;9.186;2022-12-07T14:16:01;8.90;;;7.68;;
27566;SDS011;15006;48.584;9.186;2022-12-07T14:18:36;7.15;;;6.50;;
27566;SDS011;15006;48.584;9.186;2022-12-07T14:23:39;8.52;;;7.72;;
27566;SDS011;15006;48.584;9.186;2022-12-07T14:26:15;9.55;;;8.35;;
27566;SDS011;15006;48.584;9.186;2022-12-07T14:28:46;8.95;;;7.97;;
27566;SDS011;15006;48.584;9.186;2022-12-07T14:33:41;7.68;;;7.07;;
27566;SDS011;15006;48.584;9.186;2022-12-07T14:36:11;7.57;;;6.97;;
27566;SDS011;15006;48.584;9.186;2022-12-07T14:38:38;11.02;;;7.35;;
27566;SDS011;15006;48.584;9.186;2022-12-07T14:41:06;11.30;;;6.70;;
27566;SDS011;15006;48.584;9.186;2022-12-07T14:44:10;7.70;;;7.00;;
27566;SDS011;15006;48.584;9.186;2022-12-07T14:46:38;7.32;;;6.22;;
27566;SDS011;15006;48.584;9.186;2022-12-07T14:49:05;14.20;;;5.72;;
27566;SDS011;15006;48.584;9.186;2022-12-07T14:51:31;5.32;;;4.82;;
27566;SDS011;15006;48.584;9.186;2022-12-07T14:53:59;5.20;;;4.90;;
27566;SDS011;15006;48.584;9.186;2022-12-07T14:56:26;6.07;;;5.57;;
27566;SDS011;15006;48.584;9.186;2022-12-07T14:58:53;7.38;;;6.45;;
27566;SDS011;15006;48.584;9.186;2022-12-07T15:01:19;7.35;;;6.65;;
27566;SDS011;15006;48.584;9.186;2022-12-07T15:03:45;7.68;;;6.95;;
27566;SDS011;15006;48.584;9.186;2022-12-07T15:06:13;10.75;;;7.43;;
27566;SDS011;15006;48.584;9.186;2022-12-07T15:08:42;7.13;;;6.38;;
27566;SDS011;15006;48.584;9.186;2022-12-07T15:11:11;6.70;;;6.03;;
27566;SDS011;15006;48.584;9.186;2022-12-07T15:13:39;5.20;;;4.78;;
27566;SDS011;15006;48.584;9.186;2022-12-07T15:16:24;6.22;;;5.72;;
27566;SDS011;15006;48.584;9.186;2022-12-07T15:18:50;6.07;;;5.57;;
27566;SDS011;15006;48.584;9.186;2022-12-07T15:21:16;8.15;;;6.43;;
27566;SDS011;15006;48.584;9.186;2022-12-07T15:23:43;7.85;;;7.13;;
27566;SDS011;15006;48.584;9.186;2022-12-07T15:26:12;10.10;;;7.47;;
27566;SDS011;15006;48.584;9.186;2022-12-07T15:28:39;7.50;;;6.53;;
27566;SDS011;15006;48.584;9.186;2022-12-07T15:31:13;8.93;;;8.02;;
27566;SDS011;15006;48.584;9.186;2022-12-07T15:33:41;9.13;;;8.23;;
27566;SDS011;15006;48.584;9.186;2022-12-07T15:36:08;8.60;;;6.88;;
27566;SDS011;15006;48.584;9.186;2022-12-07T15:38:46;8.93;;;8.02;;
27566;SDS011;15006;48.584;9.186;2022-12-07T15:41:13;11.82;;;9.18;;
27566;SDS011;15006;48.584;9.186;2022-12-07T15:43:39;10.57;;;8.18;;
27566;SDS011;15006;48.584;9.186;2022-12-07T15:46:28;12.20;;;8.20;;
27566;SDS011;15006;48.584;9.186;2022-12-07T15:48:59;9.00;;;7.90;;
27566;SDS011;15006;48.584;9.186;2022-12-07T15:51:26;21.35;;;9.20;;
27566;SDS011;15006;48.584;9.186;2022-12-07T15:53:52;10.95;;;8.52;;
27566;SDS011;15006;48.584;9.186;2022-12-07T15:56:19;10.80;;;9.00;;
27566;SDS011;15006;48.584;9.186;2022-12-07T15:58:45;12.50;;;8.88;;
27566;SDS011;15006;48.584;9.186;2022-12-07T16:01:13;17.40;;;9.63;;
27566;SDS011;15006;48.584;9.186;2022-12-07T16:03:41;11.23;;;9.10;;
27566;SDS011;15006;48.584;9.186;2022-12-07T16:06:08;11.75;;;8.65;;
27566;SDS011;15006;48.584;9.186;2022-12-07T16:08:34;13.70;;;9.35;;
27566;SDS011;15006;48.584;9.186;2022-12-07T16:11:03;10.38;;;9.27;;
27566;SDS011;15006;48.584;9.186;2022-12-07T16:13:31;11.55;;;10.13;;
27566;SDS011;15006;48.584;9.186;2022-12-07T16:16:01;13.93;;;9.20;;
27566;SDS011;15006;48.584;9.186;2022-12-07T16:18:33;10.20;;;9.07;;
27566;SDS011;15006;48.584;9.186;2022-12-07T16:20:59;10.38;;;9.30;;
27566;SDS011;15006;48.584;9.186;2022-12-07T16:23:26;12.20;;;10.13;;
27566;SDS011;15006;48.584;9.186;2022-12-07T16:25:53;12.02;;;10.05;;
27566;SDS011;15006;48.584;9.186;2022-12-07T16:28:19;13.93;;;10.30;;
27566;SDS011;15006;48.584;9.186;2022-12-07T16:30:45;12.70;;;10.25;;
27566;SDS011;15006;48.584;9.186;2022-12-07T16:33:11;10.82;;;9.52;;
27566;SDS011;15006;48.584;9.186;2022-12-07T16:35:38;14.00;;;11.02;;
27566;SDS011;15006;48.584;9.186;2022-12-07T16:38:06;11.15;;;9.40;;
27566;SDS011;15006;48.584;9.186;2022-12-07T16:40:32;10.70;;;8.75;;
27566;SDS011;15006;48.584;9.186;2022-12-07T16:42:58;10.85;;;7.80;;
27566;SDS011;15006;48.584;9.186;2022-12-07T16:45:24;9.95;;;7.20;;
27566;SDS011;15006;48.584;9.186;2022-12-07T16:47:50;12.02;;;7.72;;
27566;SDS011;15006;48.584;9.186;2022-12-07T16:50:16;11.48;;;10.13;;
27566;SDS011;15006;48.584;9.186;2022-12-07T16:52:42;16.08;;;12.98;;
27566;SDS011;15006;48.584;9.186;2022-12-07T16:55:08;15.40;;;13.77;;
27566;SDS011;15006;48.584;9.186;2022-12-07T16:57:34;13.20;;;9.45;;
27566;SDS011;15006;48.584;9.186;2022-12-07T17:00:00;12.10;;;9.52;;
27566;SDS011;15006;48.584;9.186;2022-12-07T17:02:28;10.55;;;9.43;;
27566;SDS011;15006;48.584;9.186;2022-12-07T17:04:54;12.38;;;8.73;;
27566;SDS011;15006;48.584;9.186;2022-12-07T17:07:20;10.38;;;9.38;;
27566;SDS011;15006;48.584;9.186;2022-12-07T17:09:46;14.05;;;9.38;;
27566;SDS011;15006;48.584;9.186;2022-12-07T17:12:12;12.02;;;10.27;;
27566;SDS011;15006;48.584;9.186;2022-12-07T17:14:38;13.13;;;10.65;;
27566;SDS011;15006;48.584;9.186;2022-12-07T17:17:22;14.57;;;11.07;;
27566;SDS011;15006;48.584;9.186;2022-12-07T17:19:48;12.43;;;9.85;;
27566;SDS011;15006;48.584;9.186;2022-12-07T17:22:14;9.10;;;8.18;;
27566;SDS011;15006;48.584;9.186;2022-12-07T17:24:40;8.15;;;7.45;;
27566;SDS011;15006;48.584;9.186;2022-12-07T17:27:06;9.73;;;8.02;;
27566;SDS011;15006;48.584;9.186;2022-12-07T17:29:33;9.85;;;7.75;;
27566;SDS011;15006;48.584;9.186;2022-12-07T17:31:59;10.65;;;7.82;;
27566;SDS011;15006;48.584;9.186;2022-12-07T17:34:25;7.82;;;7.13;;
27566;SDS011;15006;48.584;9.186;2022-12-07T17:36:51;7.82;;;7.13;;